createdAt,value
2022-10-15T00:00:18.760Z,232.90
2022-10-15T00:01:18.810Z,186.00
2022-10-15T00:02:18.780Z,165.80
2022-10-15T00:03:18.723Z,200.50
2022-10-15T00:04:18.724Z,189.50
2022-10-15T00:05:18.701Z,202.90
2022-10-15T00:06:18.684Z,213.60
2022-10-15T00:07:18.711Z,212.10
2022-10-15T00:08:18.664Z,200.80
2022-10-15T00:09:18.666Z,203.70
2022-10-15T00:10:18.652Z,191.60
2022-10-15T00:11:18.627Z,189.20
2022-10-15T00:12:18.668Z,182.10
2022-10-15T00:13:18.613Z,184.10
2022-10-15T00:14:18.599Z,197.50
2022-10-15T00:15:18.586Z,179.50
2022-10-15T00:16:18.577Z,190.50
2022-10-15T00:17:18.598Z,158.40
2022-10-15T00:18:18.548Z,168.70
2022-10-15T00:19:18.547Z,194.30
2022-10-15T00:20:18.537Z,146.70
2022-10-15T00:21:18.512Z,160.70
2022-10-15T00:22:18.554Z,167.80
2022-10-15T00:23:18.491Z,216.00
2022-10-15T00:24:18.496Z,193.00
2022-10-15T00:25:18.470Z,152.40
2022-10-15T00:26:18.453Z,191.90
2022-10-15T00:27:18.486Z,175.10
2022-10-15T00:28:18.529Z,195.60
2022-10-15T00:29:18.424Z,201.50
2022-10-15T00:30:18.413Z,159.80
2022-10-15T00:31:18.402Z,159.20
2022-10-15T00:32:18.441Z,168.90
2022-10-15T00:33:18.388Z,199.30
2022-10-15T00:34:18.370Z,177.50
2022-10-15T00:35:18.360Z,203.80
2022-10-15T00:36:18.369Z,206.70
2022-10-15T00:37:18.371Z,205.90
2022-10-15T00:38:18.306Z,203.60
2022-10-15T00:39:18.315Z,155.80
2022-10-15T00:40:18.305Z,155.90
2022-10-15T00:41:18.288Z,162.30
2022-10-15T00:42:18.327Z,201.10
2022-10-15T00:43:18.276Z,242.30
2022-10-15T00:44:18.241Z,186.00
2022-10-15T00:45:18.260Z,147.80
2022-10-15T00:46:18.236Z,170.50
2022-10-15T00:47:18.275Z,142.20
2022-10-15T00:48:18.207Z,153.40
2022-10-15T00:49:18.200Z,217.20
2022-10-15T00:50:18.196Z,146.80
2022-10-15T00:51:18.171Z,202.00
2022-10-15T00:52:18.205Z,228.30
2022-10-15T00:53:18.154Z,205.60
2022-10-15T00:54:18.143Z,161.10
2022-10-15T00:55:18.129Z,144.30
2022-10-15T00:56:18.116Z,179.00
2022-10-15T00:57:18.151Z,196.40
2022-10-15T00:58:18.085Z,137.70
2022-10-15T00:59:18.085Z,162.00
2022-10-15T01:00:18.074Z,190.40
2022-10-15T01:01:18.084Z,215.50
2022-10-15T01:02:18.087Z,142.90
2022-10-15T01:03:18.038Z,168.30
2022-10-15T01:04:18.022Z,242.10
2022-10-15T01:05:18.018Z,240.20
2022-10-15T01:06:18.006Z,161.90
2022-10-15T01:07:18.036Z,146.70
2022-10-15T01:08:17.976Z,152.20
2022-10-15T01:09:17.958Z,155.30
2022-10-15T01:10:17.947Z,162.70
2022-10-15T01:11:17.950Z,201.10
2022-10-15T01:12:17.976Z,214.10
2022-10-15T01:13:17.923Z,168.20
2022-10-15T01:14:17.910Z,144.20
2022-10-15T01:15:17.911Z,155.50
2022-10-15T01:16:17.892Z,178.70
2022-10-15T01:17:17.918Z,215.30
2022-10-15T01:18:17.860Z,218.40
2022-10-15T01:19:17.849Z,143.10
2022-10-15T01:20:17.837Z,159.80
2022-10-15T01:21:17.872Z,152.20
2022-10-15T01:22:17.860Z,151.10
2022-10-15T01:23:20.154Z,157.40
2022-10-15T01:24:17.787Z,214.40
2022-10-15T01:26:17.768Z,141.90
2022-10-15T01:27:17.802Z,156.70
2022-10-15T01:28:17.780Z,179.70
2022-10-15T01:29:17.740Z,204.90
2022-10-15T01:30:17.732Z,244.70
2022-10-15T01:31:17.716Z,228.50
2022-10-15T01:32:17.748Z,204.20
2022-10-15T01:33:17.698Z,193.90
2022-10-15T01:35:17.674Z,175.90
2022-10-15T01:36:17.658Z,216.20
2022-10-15T01:37:17.691Z,220.60
2022-10-15T01:38:17.637Z,169.90
2022-10-15T01:39:17.615Z,156.00
2022-10-15T01:40:17.598Z,163.00
2022-10-15T01:41:17.585Z,195.70
2022-10-15T01:42:17.624Z,218.80
2022-10-15T01:43:17.636Z,225.80
2022-10-15T01:44:17.560Z,159.50
2022-10-15T01:45:17.564Z,158.70
2022-10-15T01:46:17.545Z,224.70
2022-10-15T01:47:17.575Z,247.30
2022-10-15T01:48:17.518Z,212.60
2022-10-15T01:49:17.521Z,220.10
2022-10-15T01:50:17.501Z,146.20
2022-10-15T01:51:17.490Z,170.60
2022-10-15T01:52:17.551Z,162.80
2022-10-15T01:53:17.456Z,197.10
2022-10-15T01:54:17.450Z,213.80
2022-10-15T01:55:17.442Z,185.50
2022-10-15T01:56:17.441Z,226.80
2022-10-15T01:57:17.468Z,188.10
2022-10-15T01:58:17.413Z,200.50
2022-10-15T01:59:17.401Z,167.00
2022-10-15T02:00:17.382Z,159.30
2022-10-15T02:01:17.418Z,154.00
2022-10-15T02:02:17.402Z,175.30
2022-10-15T02:03:17.354Z,199.20
2022-10-15T02:04:17.331Z,187.40
2022-10-15T02:05:17.328Z,179.00
2022-10-15T02:06:17.330Z,239.90
2022-10-15T02:07:17.351Z,236.90
2022-10-15T02:08:17.289Z,215.40
2022-10-15T02:09:17.283Z,202.40
2022-10-15T02:10:17.267Z,194.50
2022-10-15T02:11:17.259Z,184.00
2022-10-15T02:12:17.273Z,192.10
2022-10-15T02:13:17.223Z,152.70
2022-10-15T02:14:17.212Z,162.00
2022-10-15T02:15:17.212Z,165.60
2022-10-15T02:16:17.203Z,180.30
2022-10-15T02:17:17.241Z,188.30
2022-10-15T02:18:17.177Z,185.60
2022-10-15T02:19:17.162Z,212.10
2022-10-15T02:20:17.160Z,199.80
2022-10-15T02:21:17.140Z,193.40
2022-10-15T02:22:17.173Z,185.80
2022-10-15T02:23:17.123Z,152.30
2022-10-15T02:24:17.118Z,185.40
2022-10-15T02:25:17.093Z,168.10
2022-10-15T02:26:17.090Z,173.70
2022-10-15T02:27:17.114Z,197.90
2022-10-15T02:28:17.107Z,203.00
2022-10-15T02:30:17.042Z,209.30
2022-10-15T02:31:17.037Z,183.00
2022-10-15T02:32:17.061Z,171.50
2022-10-15T02:33:17.012Z,177.50
2022-10-15T02:34:16.982Z,197.50
2022-10-15T02:35:16.982Z,214.20
2022-10-15T02:36:16.971Z,226.40
2022-10-15T02:37:17.005Z,236.60
2022-10-15T02:38:16.957Z,221.30
2022-10-15T02:39:16.927Z,164.00
2022-10-15T02:40:16.933Z,184.70
2022-10-15T02:41:16.923Z,235.80
2022-10-15T02:42:16.955Z,231.00
2022-10-15T02:43:16.891Z,219.20
2022-10-15T02:44:16.876Z,227.00
2022-10-15T02:45:16.863Z,164.50
2022-10-15T02:46:16.847Z,197.40
2022-10-15T02:47:16.931Z,224.50
2022-10-15T02:48:16.837Z,239.10
2022-10-15T02:49:16.825Z,204.70
2022-10-15T02:50:16.811Z,184.80
2022-10-15T02:51:16.809Z,199.40
2022-10-15T02:52:16.855Z,197.70
2022-10-15T02:53:16.783Z,169.50
2022-10-15T02:54:16.769Z,187.00
2022-10-15T02:55:16.754Z,194.90
2022-10-15T02:56:16.807Z,200.10
2022-10-15T02:57:16.786Z,224.30
2022-10-15T02:58:16.716Z,175.10
2022-10-15T02:59:16.710Z,172.00
2022-10-15T03:00:16.699Z,192.70
2022-10-15T03:01:16.735Z,220.30
2022-10-15T03:02:19.153Z,192.80
2022-10-15T03:03:16.716Z,227.20
2022-10-15T03:04:16.656Z,165.70
2022-10-15T03:05:16.686Z,173.60
2022-10-15T03:06:16.635Z,235.20
2022-10-15T03:07:16.619Z,212.00
2022-10-15T03:08:16.653Z,189.90
2022-10-15T03:09:16.605Z,216.90
2022-10-15T03:10:16.586Z,222.40
2022-10-15T03:11:16.576Z,215.10
2022-10-15T03:12:16.607Z,212.50
2022-10-15T03:13:16.568Z,197.60
2022-10-15T03:14:16.604Z,223.30
2022-10-15T03:15:16.533Z,177.80
2022-10-15T03:16:16.508Z,172.60
2022-10-15T03:17:16.544Z,172.60
2022-10-15T03:18:16.488Z,229.50
2022-10-15T03:19:16.480Z,235.30
2022-10-15T03:20:16.476Z,238.60
2022-10-15T03:21:16.467Z,229.10
2022-10-15T03:22:16.486Z,240.90
2022-10-15T03:23:16.439Z,204.60
2022-10-15T03:24:16.418Z,237.50
2022-10-15T03:25:16.418Z,243.60
2022-10-15T03:26:16.401Z,225.40
2022-10-15T03:27:16.429Z,218.00
2022-10-15T03:28:16.424Z,160.70
2022-10-15T03:29:16.369Z,198.70
2022-10-15T03:30:16.347Z,248.90
2022-10-15T03:31:16.349Z,250.70
2022-10-15T03:32:16.366Z,214.40
2022-10-15T03:33:16.337Z,257.50
2022-10-15T03:34:16.301Z,251.10
2022-10-15T03:35:16.301Z,248.60
2022-10-15T03:36:16.291Z,239.30
2022-10-15T03:37:16.350Z,235.30
2022-10-15T03:38:16.265Z,228.60
2022-10-15T03:39:16.247Z,246.90
2022-10-15T03:40:16.236Z,222.30
2022-10-15T03:41:16.230Z,204.10
2022-10-15T03:42:16.260Z,211.00
2022-10-15T03:43:16.216Z,204.40
2022-10-15T03:44:16.201Z,221.90
2022-10-15T03:45:16.187Z,209.10
2022-10-15T03:46:16.178Z,219.50
2022-10-15T03:47:16.202Z,160.60
2022-10-15T03:48:16.138Z,174.80
2022-10-15T03:49:16.136Z,203.70
2022-10-15T03:50:16.128Z,173.30
2022-10-15T03:51:19.962Z,166.70
2022-10-15T03:52:17.149Z,207.40
2022-10-15T03:53:16.102Z,203.00
2022-10-15T03:54:16.081Z,168.20
2022-10-15T03:55:16.077Z,181.80
2022-10-15T03:56:16.055Z,208.10
2022-10-15T03:57:16.097Z,242.50
2022-10-15T03:58:16.036Z,230.20
2022-10-15T03:59:16.033Z,202.80
2022-10-15T04:00:16.016Z,258.70
2022-10-15T04:01:16.048Z,263.00
2022-10-15T04:02:16.033Z,257.20
2022-10-15T04:03:15.993Z,258.40
2022-10-15T04:04:15.971Z,250.70
2022-10-15T04:05:15.973Z,239.90
2022-10-15T04:06:15.949Z,244.40
2022-10-15T04:07:15.982Z,230.50
2022-10-15T04:08:15.919Z,241.10
2022-10-15T04:09:15.912Z,226.90
2022-10-15T04:10:15.900Z,231.00
2022-10-15T04:11:15.889Z,222.10
2022-10-15T04:12:15.919Z,217.20
2022-10-15T04:13:15.867Z,239.20
2022-10-15T04:14:15.862Z,256.20
2022-10-15T04:15:15.835Z,244.50
2022-10-15T04:16:15.831Z,266.20
2022-10-15T04:17:15.879Z,239.00
2022-10-15T04:18:15.805Z,205.00
2022-10-15T04:19:15.794Z,193.20
2022-10-15T04:20:15.776Z,199.10
2022-10-15T04:21:15.767Z,184.40
2022-10-15T04:22:15.831Z,193.10
2022-10-15T04:23:15.761Z,166.80
2022-10-15T04:24:15.730Z,192.00
2022-10-15T04:25:15.730Z,201.40
2022-10-15T04:26:15.718Z,185.80
2022-10-15T04:28:15.695Z,217.80
2022-10-15T04:29:15.684Z,203.10
2022-10-15T04:30:15.662Z,191.80
2022-10-15T04:31:15.661Z,207.50
2022-10-15T04:32:15.686Z,207.40
2022-10-15T04:33:15.637Z,222.70
2022-10-15T04:34:15.630Z,251.50
2022-10-15T04:35:15.613Z,242.40
2022-10-15T04:37:15.638Z,261.30
2022-10-15T04:38:15.667Z,258.00
2022-10-15T04:39:15.562Z,223.50
2022-10-15T04:40:15.550Z,259.00
2022-10-15T04:41:15.545Z,269.80
2022-10-15T04:42:15.579Z,254.90
2022-10-15T04:43:15.528Z,233.30
2022-10-15T04:44:15.514Z,235.80
2022-10-15T04:45:15.540Z,272.10
2022-10-15T04:46:15.493Z,245.70
2022-10-15T04:47:15.520Z,267.20
2022-10-15T04:48:15.465Z,247.20
2022-10-15T04:49:15.448Z,219.20
2022-10-15T04:50:15.447Z,216.90
2022-10-15T04:51:15.420Z,213.30
2022-10-15T04:52:15.457Z,187.50
2022-10-15T04:53:15.401Z,194.90
2022-10-15T04:54:15.506Z,210.50
2022-10-15T04:55:15.382Z,218.90
2022-10-15T04:56:15.382Z,201.80
2022-10-15T04:57:15.401Z,210.90
2022-10-15T04:58:15.352Z,249.40
2022-10-15T04:59:15.333Z,230.10
2022-10-15T05:00:15.330Z,201.00
2022-10-15T05:01:15.327Z,204.60
2022-10-15T05:02:15.368Z,184.00
2022-10-15T05:03:15.290Z,183.90
2022-10-15T05:04:15.284Z,189.70
2022-10-15T05:05:15.262Z,193.80
2022-10-15T05:06:15.267Z,212.50
2022-10-15T05:07:15.282Z,187.80
2022-10-15T05:08:15.273Z,180.70
2022-10-15T05:09:15.229Z,204.50
2022-10-15T05:10:15.234Z,201.90
2022-10-15T05:11:15.197Z,215.10
2022-10-15T05:12:15.315Z,168.70
2022-10-15T05:13:15.179Z,203.00
2022-10-15T05:14:15.167Z,240.80
2022-10-15T05:15:15.153Z,263.40
2022-10-15T05:16:15.155Z,256.60
2022-10-15T05:17:15.128Z,238.70
2022-10-15T05:18:15.171Z,239.30
2022-10-15T05:19:15.109Z,229.00
2022-10-15T05:20:15.101Z,247.80
2022-10-15T05:21:15.096Z,220.30
2022-10-15T05:22:15.075Z,172.20
2022-10-15T05:23:15.106Z,190.50
2022-10-15T05:24:15.041Z,211.80
2022-10-15T05:25:15.047Z,205.60
2022-10-15T05:26:15.035Z,211.40
2022-10-15T05:27:15.017Z,234.40
2022-10-15T05:28:15.051Z,236.40
2022-10-15T05:29:14.993Z,236.10
2022-10-15T05:30:14.988Z,238.50
2022-10-15T05:31:18.836Z,252.60
2022-10-15T05:32:15.046Z,257.20
2022-10-15T05:33:14.995Z,250.10
2022-10-15T05:34:14.948Z,255.10
2022-10-15T05:35:14.930Z,250.80
2022-10-15T05:36:14.917Z,229.50
2022-10-15T05:37:14.986Z,241.20
2022-10-15T05:38:14.951Z,226.30
2022-10-15T05:39:14.876Z,243.10
2022-10-15T05:40:18.223Z,209.20
2022-10-15T05:41:15.898Z,229.00
2022-10-15T05:42:14.851Z,226.70
2022-10-15T05:43:14.876Z,227.40
2022-10-15T05:44:14.838Z,208.90
2022-10-15T05:45:14.814Z,225.80
2022-10-15T05:46:14.800Z,201.90
2022-10-15T05:47:14.777Z,208.00
2022-10-15T05:48:14.833Z,200.80
2022-10-15T05:49:14.765Z,203.70
2022-10-15T05:50:14.758Z,214.80
2022-10-15T05:51:14.728Z,202.80
2022-10-15T05:52:14.743Z,189.40
2022-10-15T05:53:14.783Z,206.40
2022-10-15T05:54:14.698Z,203.20
2022-10-15T05:55:14.699Z,217.60
2022-10-15T05:56:14.700Z,210.00
2022-10-15T05:57:14.666Z,228.20
2022-10-15T05:58:14.718Z,215.80
2022-10-15T05:59:14.660Z,234.60
2022-10-15T06:00:14.641Z,241.40
2022-10-15T06:01:14.631Z,248.50
2022-10-15T06:02:14.691Z,250.00
2022-10-15T06:03:14.655Z,264.70
2022-10-15T06:04:14.603Z,270.50
2022-10-15T06:05:14.585Z,283.70
2022-10-15T06:06:14.577Z,282.40
2022-10-15T06:07:14.557Z,309.90
2022-10-15T06:08:14.586Z,277.80
2022-10-15T06:09:14.537Z,273.40
2022-10-15T06:10:14.535Z,241.90
2022-10-15T06:11:14.517Z,225.70
2022-10-15T06:12:14.512Z,253.50
2022-10-15T06:13:14.549Z,303.30
2022-10-15T06:14:14.535Z,293.20
2022-10-15T06:15:14.476Z,304.10
2022-10-15T06:16:16.614Z,309.00
2022-10-15T06:17:15.444Z,299.10
2022-10-15T06:18:14.485Z,292.80
2022-10-15T06:19:14.447Z,285.40
2022-10-15T06:20:14.417Z,291.80
2022-10-15T06:21:14.427Z,283.00
2022-10-15T06:22:14.404Z,260.80
2022-10-15T06:23:14.431Z,294.60
2022-10-15T06:24:14.368Z,298.60
2022-10-15T06:25:14.358Z,260.60
2022-10-15T06:26:14.341Z,295.20
2022-10-15T06:27:14.336Z,270.50
2022-10-15T06:28:14.383Z,229.40
2022-10-15T06:29:14.326Z,203.00
2022-10-15T06:30:14.301Z,191.30
2022-10-15T06:31:14.275Z,272.50
2022-10-15T06:32:14.280Z,191.30
2022-10-15T06:33:14.307Z,172.80
2022-10-15T06:34:14.276Z,140.80
2022-10-15T06:35:14.258Z,166.40
2022-10-15T06:36:14.245Z,157.50
2022-10-15T06:37:14.223Z,165.60
2022-10-15T06:38:14.263Z,203.00
2022-10-15T06:39:14.227Z,236.00
2022-10-15T06:40:14.179Z,275.60
2022-10-15T06:41:14.182Z,335.60
2022-10-15T06:42:14.165Z,288.00
2022-10-15T06:43:14.200Z,254.30
2022-10-15T06:44:14.130Z,208.50
2022-10-15T06:45:15.871Z,214.20
2022-10-15T06:46:14.120Z,134.70
2022-10-15T06:47:14.111Z,127.10
2022-10-15T06:48:14.143Z,195.40
2022-10-15T06:49:14.088Z,187.70
2022-10-15T06:50:14.076Z,220.10
2022-10-15T06:51:14.073Z,323.60
2022-10-15T06:52:14.050Z,324.50
2022-10-15T06:53:14.092Z,288.70
2022-10-15T06:54:14.028Z,226.80
2022-10-15T06:55:14.014Z,218.90
2022-10-15T06:56:13.996Z,151.80
2022-10-15T06:57:13.983Z,221.90
2022-10-15T06:58:14.015Z,251.30
2022-10-15T06:59:13.969Z,334.50
2022-10-15T07:00:13.965Z,250.20
2022-10-15T07:01:13.945Z,198.50
2022-10-15T07:02:13.943Z,120.90
2022-10-15T07:03:13.967Z,112.40
2022-10-15T07:04:13.913Z,101.00
2022-10-15T07:05:13.893Z,78.40
2022-10-15T07:06:13.894Z,147.60
2022-10-15T07:07:13.872Z,138.10
2022-10-15T07:08:16.948Z,206.10
2022-10-15T07:09:14.854Z,197.80
2022-10-15T07:10:13.888Z,83.80
2022-10-15T07:11:13.833Z,187.80
2022-10-15T07:12:13.828Z,78.90
2022-10-15T07:13:13.860Z,108.80
2022-10-15T07:14:13.804Z,76.30
2022-10-15T07:15:13.786Z,78.60
2022-10-15T07:16:13.785Z,154.60
2022-10-15T07:17:13.768Z,105.10
2022-10-15T07:18:13.818Z,50.60
2022-10-15T07:19:13.745Z,142.60
2022-10-15T07:20:13.733Z,127.20
2022-10-15T07:21:13.713Z,61.60
2022-10-15T07:22:13.710Z,64.90
2022-10-15T07:23:13.741Z,124.90
2022-10-15T07:24:13.730Z,118.50
2022-10-15T07:25:13.680Z,88.60
2022-10-15T07:26:13.663Z,85.50
2022-10-15T07:27:20.862Z,124.80
2022-10-15T07:28:14.689Z,82.50
2022-10-15T07:29:13.619Z,120.70
2022-10-15T07:30:13.612Z,104.30
2022-10-15T07:31:13.607Z,93.30
2022-10-15T07:32:13.598Z,68.60
2022-10-15T07:33:13.626Z,95.50
2022-10-15T07:34:13.611Z,92.30
2022-10-15T07:35:13.571Z,91.00
2022-10-15T07:36:13.552Z,113.10
2022-10-15T07:37:13.533Z,273.00
2022-10-15T07:38:13.581Z,261.40
2022-10-15T07:39:13.526Z,617.40
2022-10-15T07:40:13.512Z,1026.50
2022-10-15T07:41:13.502Z,1054.50
2022-10-15T07:43:13.524Z,1261.70
2022-10-15T07:44:13.474Z,1269.70
2022-10-15T07:45:13.451Z,1162.00
2022-10-15T07:46:13.449Z,1999.90
2022-10-15T07:47:13.422Z,1999.90
2022-10-15T07:48:13.476Z,1999.90
2022-10-15T07:49:13.405Z,1999.90
2022-10-15T07:50:13.410Z,1999.90
2022-10-15T07:51:13.530Z,1999.90
2022-10-15T07:52:13.377Z,1999.90
2022-10-15T07:53:13.400Z,1999.90
2022-10-15T07:54:13.352Z,1999.90
2022-10-15T07:55:13.340Z,1999.90
2022-10-15T07:56:13.322Z,1999.90
2022-10-15T07:57:13.315Z,1994.70
2022-10-15T07:58:13.344Z,1540.50
2022-10-15T07:59:13.302Z,1999.90
2022-10-15T08:00:13.271Z,1742.70
2022-10-15T08:01:13.260Z,1507.60
2022-10-15T08:02:13.253Z,1437.60
2022-10-15T08:03:13.281Z,989.10
2022-10-15T08:04:13.232Z,693.30
2022-10-15T08:05:13.222Z,417.80
2022-10-15T08:06:13.255Z,342.10
2022-10-15T08:07:13.208Z,1260.30
2022-10-15T08:08:13.233Z,1999.90
2022-10-15T08:09:13.320Z,1999.90
2022-10-15T08:10:13.164Z,1999.90
2022-10-15T08:11:13.165Z,1999.90
2022-10-15T08:12:13.154Z,1999.90
2022-10-15T08:13:13.135Z,1999.90
2022-10-15T08:14:13.167Z,1999.90
2022-10-15T08:15:13.107Z,1999.90
2022-10-15T08:16:13.103Z,1999.90
2022-10-15T08:17:13.082Z,1999.90
2022-10-15T08:18:13.080Z,1999.90
2022-10-15T08:19:13.164Z,1999.90
2022-10-15T08:20:13.053Z,1999.90
2022-10-15T08:21:13.043Z,1999.90
2022-10-15T08:22:13.033Z,1999.90
2022-10-15T08:23:13.018Z,1999.90
2022-10-15T08:24:13.060Z,1999.90
2022-10-15T08:25:12.995Z,1999.90
2022-10-15T08:26:12.986Z,1999.90
2022-10-15T08:27:12.970Z,1999.90
2022-10-15T08:28:12.970Z,1999.90
2022-10-15T08:29:12.996Z,1027.80
2022-10-15T08:30:12.947Z,89.20
2022-10-15T08:31:12.912Z,948.60
2022-10-15T08:32:12.909Z,792.90
2022-10-15T08:33:12.897Z,307.30
2022-10-15T08:34:12.940Z,933.20
2022-10-15T08:35:12.883Z,1999.90
2022-10-15T08:36:12.873Z,1539.40
2022-10-15T08:38:16.063Z,1999.90
2022-10-15T08:39:13.890Z,1999.90
2022-10-15T08:40:12.832Z,1999.90
2022-10-15T08:41:12.811Z,1999.90
2022-10-15T08:42:12.804Z,1999.90
2022-10-15T08:43:12.793Z,1999.90
2022-10-15T08:44:12.831Z,1999.90
2022-10-15T08:45:12.774Z,1999.90
2022-10-15T08:46:12.824Z,1999.90
2022-10-15T08:47:12.756Z,1999.90
2022-10-15T08:48:12.747Z,1999.90
2022-10-15T08:49:12.775Z,1999.90
2022-10-15T08:50:12.755Z,1999.90
2022-10-15T08:51:12.706Z,1999.90
2022-10-15T08:52:12.711Z,1999.90
2022-10-15T08:53:12.693Z,1999.90
2022-10-15T08:54:12.719Z,1999.90
2022-10-15T08:55:12.713Z,1999.90
2022-10-15T08:56:12.674Z,1999.90
2022-10-15T08:57:12.641Z,1999.90
2022-10-15T08:58:12.629Z,1999.90
2022-10-15T08:59:12.661Z,1999.90
2022-10-15T09:00:12.604Z,1999.90
2022-10-15T09:01:12.604Z,1999.90
2022-10-15T09:02:12.584Z,1999.90
2022-10-15T09:03:12.672Z,1999.90
2022-10-15T09:04:12.583Z,1999.90
2022-10-15T09:05:12.555Z,1999.90
2022-10-15T09:06:12.538Z,1999.90
2022-10-15T09:07:12.539Z,1999.90
2022-10-15T09:08:12.516Z,1999.90
2022-10-15T09:09:12.568Z,1999.90
2022-10-15T09:10:12.495Z,1999.90
2022-10-15T09:11:12.489Z,1999.90
2022-10-15T09:12:12.476Z,1999.90
2022-10-15T09:13:15.481Z,1999.90
2022-10-15T09:14:12.507Z,1999.90
2022-10-15T09:15:12.445Z,1999.90
2022-10-15T09:16:12.436Z,1999.90
2022-10-15T09:17:12.432Z,1999.90
2022-10-15T09:18:12.402Z,1999.90
2022-10-15T09:19:12.434Z,1999.90
2022-10-15T09:20:12.389Z,1999.90
2022-10-15T09:21:12.363Z,1999.90
2022-10-15T09:22:12.368Z,1999.90
2022-10-15T09:23:12.389Z,1999.90
2022-10-15T09:24:12.393Z,1999.90
2022-10-15T09:25:12.333Z,1999.90
2022-10-15T09:26:12.316Z,1999.90
2022-10-15T09:27:12.331Z,1999.90
2022-10-15T09:28:12.324Z,1999.90
2022-10-15T09:29:12.346Z,1999.90
2022-10-15T09:30:12.273Z,1999.90
2022-10-15T09:31:12.264Z,1999.90
2022-10-15T09:32:12.255Z,1999.90
2022-10-15T09:33:12.273Z,1999.90
2022-10-15T09:34:12.274Z,1999.90
2022-10-15T09:35:12.212Z,1999.90
2022-10-15T09:36:12.193Z,1999.90
2022-10-15T09:37:12.198Z,1999.90
2022-10-15T09:38:12.185Z,1999.90
2022-10-15T09:39:12.244Z,1999.90
2022-10-15T09:40:12.161Z,1037.20
2022-10-15T09:41:12.160Z,1674.60
2022-10-15T09:42:12.141Z,1559.40
2022-10-15T09:43:12.133Z,709.80
2022-10-15T09:44:12.163Z,817.60
2022-10-15T09:45:12.099Z,1090.80
2022-10-15T09:46:12.091Z,1999.90
2022-10-15T09:47:12.086Z,1115.30
2022-10-15T09:48:12.092Z,218.10
2022-10-15T09:49:12.127Z,87.20
2022-10-15T09:50:12.113Z,55.90
2022-10-15T09:51:12.045Z,268.50
2022-10-15T09:52:12.024Z,392.90
2022-10-15T09:53:12.023Z,927.20
2022-10-15T09:54:12.053Z,1107.70
2022-10-15T09:55:12.010Z,50.10
2022-10-15T09:56:11.992Z,558.30
2022-10-15T09:57:11.973Z,906.50
2022-10-15T09:58:11.956Z,51.50
2022-10-15T09:59:12.005Z,485.10
2022-10-15T10:00:11.945Z,1060.10
2022-10-15T10:01:11.933Z,1236.40
2022-10-15T10:02:12.003Z,237.30
2022-10-15T10:03:11.907Z,956.40
2022-10-15T10:04:11.940Z,486.80
2022-10-15T10:05:11.886Z,859.10
2022-10-15T10:06:11.862Z,1217.00
2022-10-15T10:07:11.875Z,1087.90
2022-10-15T10:08:11.849Z,121.30
2022-10-15T10:09:11.888Z,165.20
2022-10-15T10:10:11.840Z,867.00
2022-10-15T10:11:11.832Z,570.90
2022-10-15T10:12:11.810Z,69.80
2022-10-15T10:13:11.790Z,901.60
2022-10-15T10:14:11.850Z,882.60
2022-10-15T10:15:11.772Z,660.00
2022-10-15T10:16:11.765Z,423.90
2022-10-15T10:17:11.752Z,1063.40
2022-10-15T10:18:11.727Z,274.60
2022-10-15T10:19:11.765Z,37.60
2022-10-15T10:20:11.705Z,989.30
2022-10-15T10:21:11.721Z,916.40
2022-10-15T10:22:11.701Z,1345.00
2022-10-15T10:23:11.700Z,673.20
2022-10-15T10:24:11.740Z,643.10
2022-10-15T10:25:11.666Z,1174.20
2022-10-15T10:26:11.652Z,597.20
2022-10-15T10:27:11.629Z,1164.50
2022-10-15T10:28:11.643Z,790.60
2022-10-15T10:29:22.274Z,379.60
2022-10-15T10:30:12.605Z,209.50
2022-10-15T10:31:11.587Z,431.00
2022-10-15T10:32:11.565Z,1404.00
2022-10-15T10:33:11.586Z,902.30
2022-10-15T10:34:11.590Z,1060.00
2022-10-15T10:35:11.533Z,1267.40
2022-10-15T10:36:11.528Z,1087.60
2022-10-15T10:37:11.526Z,740.50
2022-10-15T10:38:11.509Z,259.60
2022-10-15T10:39:11.564Z,864.30
2022-10-15T10:40:11.483Z,575.10
2022-10-15T10:41:11.472Z,1231.20
2022-10-15T10:42:11.477Z,351.40
2022-10-15T10:43:11.454Z,20.60
2022-10-15T10:44:11.488Z,17.40
2022-10-15T10:45:14.025Z,522.30
2022-10-15T10:46:12.424Z,49.30
2022-10-15T10:47:11.414Z,27.10
2022-10-15T10:48:11.381Z,17.50
2022-10-15T10:49:11.419Z,16.80
2022-10-15T10:50:11.369Z,17.00
2022-10-15T10:51:12.951Z,29.20
2022-10-15T10:52:11.345Z,19.60
2022-10-15T10:53:11.346Z,86.20
2022-10-15T10:54:11.383Z,27.80
2022-10-15T10:55:11.334Z,41.50
2022-10-15T10:56:11.302Z,201.70
2022-10-15T10:57:11.297Z,32.10
2022-10-15T10:58:11.298Z,49.50
2022-10-15T10:59:11.346Z,28.00
2022-10-15T11:00:11.251Z,28.70
2022-10-15T11:01:11.271Z,37.60
2022-10-15T11:02:11.251Z,30.20
2022-10-15T11:03:11.212Z,21.70
2022-10-15T11:04:12.990Z,19.10
2022-10-15T11:05:11.186Z,24.20
2022-10-15T11:06:11.182Z,20.20
2022-10-15T11:07:11.202Z,28.10
2022-10-15T11:08:11.168Z,72.70
2022-10-15T11:09:11.197Z,123.10
2022-10-15T11:10:11.152Z,28.90
2022-10-15T11:11:11.168Z,84.10
2022-10-15T11:12:11.131Z,26.00
2022-10-15T11:14:11.162Z,164.20
2022-10-15T11:15:11.077Z,966.50
2022-10-15T11:16:11.064Z,1417.30
2022-10-15T11:17:11.067Z,1395.90
2022-10-15T11:18:11.057Z,1999.90
2022-10-15T11:19:19.156Z,1999.90
2022-10-15T11:20:29.225Z,1999.90
2022-10-15T11:21:12.034Z,1999.90
2022-10-15T11:22:11.028Z,1999.90
2022-10-15T11:23:11.013Z,1999.90
2022-10-15T11:24:11.052Z,1999.90
2022-10-15T11:25:10.990Z,1999.90
2022-10-15T11:26:10.965Z,1999.90
2022-10-15T11:27:11.737Z,1999.90
2022-10-15T11:28:10.943Z,1999.90
2022-10-15T11:29:10.977Z,1999.90
2022-10-15T11:30:10.912Z,1999.90
2022-10-15T11:31:10.979Z,1999.90
2022-10-15T11:32:15.102Z,1999.90
2022-10-15T11:33:12.113Z,1999.90
2022-10-15T11:34:10.943Z,1999.90
2022-10-15T11:35:12.312Z,1999.90
2022-10-15T11:36:11.847Z,1999.90
2022-10-15T11:37:10.886Z,1999.90
2022-10-15T11:38:10.843Z,1999.90
2022-10-15T11:39:10.899Z,1999.90
2022-10-15T11:40:10.816Z,1999.90
2022-10-15T11:41:10.813Z,1999.90
2022-10-15T11:42:10.790Z,1999.90
2022-10-15T11:43:10.767Z,1999.90
2022-10-15T11:44:10.849Z,1999.90
2022-10-15T11:45:10.747Z,1308.00
2022-10-15T11:46:10.748Z,1008.20
2022-10-15T11:47:10.737Z,1760.20
2022-10-15T11:48:10.737Z,1269.40
2022-10-15T11:49:10.781Z,1099.90
2022-10-15T11:50:10.694Z,1159.50
2022-10-15T11:51:10.693Z,1247.00
2022-10-15T11:52:10.658Z,996.30
2022-10-15T11:53:10.667Z,743.70
2022-10-15T11:54:10.696Z,1999.90
2022-10-15T11:55:10.650Z,1999.90
2022-10-15T11:56:10.633Z,1999.90
2022-10-15T11:57:10.685Z,1999.90
2022-10-15T11:58:10.598Z,1999.90
2022-10-15T11:59:10.650Z,1999.90
2022-10-15T12:00:10.562Z,1999.90
2022-10-15T12:01:10.570Z,1999.90
2022-10-15T12:02:10.567Z,1999.90
2022-10-15T12:03:10.587Z,1999.90
2022-10-15T12:04:10.626Z,1999.90
2022-10-15T12:05:10.507Z,1999.90
2022-10-15T12:06:10.500Z,1999.90
2022-10-15T12:07:10.539Z,1999.90
2022-10-15T12:08:10.489Z,1999.90
2022-10-15T12:09:10.525Z,1999.90
2022-10-15T12:10:10.460Z,1999.90
2022-10-15T12:11:10.478Z,1999.90
2022-10-15T12:12:10.454Z,1999.90
2022-10-15T12:13:10.436Z,1999.90
2022-10-15T12:14:10.458Z,1999.90
2022-10-15T12:15:10.406Z,1999.90
2022-10-15T12:16:10.413Z,1999.90
2022-10-15T12:18:10.389Z,1999.90
2022-10-15T12:19:10.421Z,1999.90
2022-10-15T12:20:10.352Z,1999.90
2022-10-15T12:21:10.357Z,1999.90
2022-10-15T12:22:10.330Z,1999.90
2022-10-15T12:23:10.331Z,1999.90
2022-10-15T12:24:10.363Z,1999.90
2022-10-15T12:25:10.307Z,1999.90
2022-10-15T12:26:10.315Z,1999.90
2022-10-15T12:27:10.293Z,1999.90
2022-10-15T12:28:10.284Z,1999.90
2022-10-15T12:29:10.354Z,1999.90
2022-10-15T12:30:10.266Z,1999.90
2022-10-15T12:31:10.234Z,1999.90
2022-10-15T12:32:10.208Z,1999.90